Time;durP1;ratioP1;P1;durP2;ratioP2;P2;SDS_P1;SDS_P2;PMS_P1;PMS_P2;Temp;Humidity;BMP_temperature;BMP_pressure;BME280_temperature;BME280_humidity;BME280_pressure;Samples;Min_cycle;Max_cycle;Signal;HPM_P1;HPM_P2
2022/12/03 00:04:26;;;;;;;35.10;20.90;;;;;5.60;99011.00;;;;16600571;28;20290;-47
2022/12/03 00:12:30;;;;;;;29.90;21.60;;;;;5.60;99011.00;;;;16601641;28;20382;-47
2022/12/03 00:20:32;;;;;;;30.83;20.53;;;;;5.40;99019.00;;;;16614477;28;20260;-47
2022/12/03 00:28:37;;;;;;;29.47;18.80;;;;;5.00;99027.00;;;;16608417;28;20216;-46
2022/12/03 00:36:39;;;;;;;30.20;20.60;;;;;5.10;99024.00;;;;16609693;28;20220;-47
2022/12/03 00:44:43;;;;;;;30.20;18.63;;;;;4.90;99033.00;;;;16606440;28;20314;-48
2022/12/03 00:52:45;;;;;;;31.93;20.10;;;;;5.00;99023.00;;;;16611683;28;20473;-47
2022/12/03 01:00:49;;;;;;;29.47;19.13;;;;;4.90;99034.00;;;;16596956;28;20298;-47
2022/12/03 01:08:52;;;;;;;32.83;19.93;;;;;5.10;99031.00;;;;16603626;28;20346;-47
2022/12/03 01:16:55;;;;;;;35.27;21.03;;;;;5.20;99031.00;;;;16599456;28;20317;-47
2022/12/03 01:24:58;;;;;;;27.20;19.30;;;;;5.40;99032.00;;;;16625101;28;20259;-47
2022/12/03 01:33:02;;;;;;;36.33;22.33;;;;;5.50;99035.00;;;;16619595;28;20221;-48
2022/12/03 01:41:05;;;;;;;34.33;21.67;;;;;5.40;99028.00;;;;16610007;28;20246;-47
2022/12/03 01:49:12;;;;;;;32.67;21.50;;;;;5.50;99021.00;;;;16613095;28;20350;-47
2022/12/03 01:57:22;;;;;;;33.93;21.37;;;;;5.40;99038.00;;;;16606833;28;20205;-47
2022/12/03 02:05:27;;;;;;;34.33;22.30;;;;;5.50;99029.00;;;;16614758;28;20283;-47
2022/12/03 02:13:30;;;;;;;27.13;17.47;;;;;5.50;99033.00;;;;16598457;28;20721;-48
2022/12/03 02:21:38;;;;;;;29.43;19.70;;;;;5.60;99031.00;;;;16606573;28;20330;-47
2022/12/03 02:29:42;;;;;;;33.73;21.27;;;;;5.50;99020.00;;;;16625055;28;20842;-48
2022/12/03 02:37:46;;;;;;;33.43;21.10;;;;;5.90;99018.00;;;;16639952;28;20270;-48
2022/12/03 02:45:52;;;;;;;29.90;19.40;;;;;5.70;99023.00;;;;16627716;28;20207;-47
2022/12/03 02:53:55;;;;;;;31.23;20.83;;;;;6.00;99018.00;;;;16611392;28;20271;-47
2022/12/03 03:02:00;;;;;;;28.37;19.43;;;;;5.90;99032.00;;;;16651898;28;20285;-47
2022/12/03 03:10:04;;;;;;;30.87;20.20;;;;;5.90;99024.00;;;;16637478;28;20239;-47
2022/12/03 03:18:09;;;;;;;30.47;20.77;;;;;6.10;99019.00;;;;16632333;28;20732;-47
2022/12/03 03:26:13;;;;;;;26.80;17.97;;;;;5.80;99026.00;;;;16627918;28;20210;-47
2022/12/03 03:34:17;;;;;;;29.67;19.50;;;;;6.00;99012.00;;;;16587102;28;20229;-47
2022/12/03 03:42:20;;;;;;;26.30;18.63;;;;;6.00;99015.00;;;;16590279;28;20257;-47
2022/12/03 03:50:24;;;;;;;31.10;19.37;;;;;6.00;99005.00;;;;16593752;28;20670;-47
2022/12/03 03:58:26;;;;;;;28.27;18.57;;;;;5.90;99005.00;;;;16633600;28;20287;-47
2022/12/03 04:06:30;;;;;;;27.93;18.63;;;;;6.00;98996.00;;;;16645958;28;20224;-48
2022/12/03 04:14:33;;;;;;;27.57;18.80;;;;;6.10;99000.00;;;;16602733;22;20793;-79
2022/12/03 04:22:42;;;;;;;26.23;18.33;;;;;6.30;98989.00;;;;16586331;28;20304;-79
2022/12/03 04:30:45;;;;;;;30.30;19.43;;;;;6.20;98991.00;;;;16468467;28;20223;-79
2022/12/03 04:38:48;;;;;;;26.03;18.43;;;;;6.10;98988.00;;;;16476276;28;20336;-79
2022/12/03 04:46:51;;;;;;;26.53;18.30;;;;;6.20;98983.00;;;;16518308;28;20236;-79
2022/12/03 04:54:55;;;;;;;27.83;18.77;;;;;6.40;98979.00;;;;16489319;28;20593;-79
2022/12/03 05:02:58;;;;;;;25.93;19.30;;;;;6.60;98986.00;;;;16548800;28;20229;-79
2022/12/03 05:11:01;;;;;;;26.73;19.77;;;;;6.30;98977.00;;;;16502903;28;20708;-80
2022/12/03 05:19:06;;;;;;;27.47;18.80;;;;;6.30;98973.00;;;;16499501;28;20242;-79
2022/12/03 05:27:09;;;;;;;25.93;18.87;;;;;6.30;98974.00;;;;16584087;28;20288;-79
2022/12/03 05:35:12;;;;;;;37.53;23.80;;;;;6.60;98957.00;;;;16601134;28;20225;-80
2022/12/03 05:43:16;;;;;;;28.97;19.13;;;;;7.00;98945.00;;;;16525162;28;20233;-79
2022/12/03 05:51:19;;;;;;;32.37;19.90;;;;;7.50;98943.00;;;;16509695;28;20216;-79
2022/12/03 05:59:23;;;;;;;27.67;18.10;;;;;6.70;98948.00;;;;16463340;28;20223;-79
2022/12/03 06:07:25;;;;;;;29.20;20.07;;;;;6.60;98955.00;;;;16468191;28;20251;-79
2022/12/03 06:15:29;;;;;;;26.93;18.00;;;;;6.50;98945.00;;;;16470721;28;20278;-78
2022/12/03 06:23:32;;;;;;;27.47;18.27;;;;;7.30;98951.00;;;;16469637;28;20228;-79
2022/12/03 06:31:35;;;;;;;31.80;21.30;;;;;6.50;98960.00;;;;16471458;28;20231;-79
2022/12/03 06:39:38;;;;;;;30.17;20.10;;;;;6.40;98978.00;;;;16472980;28;20266;-80
2022/12/03 06:47:42;;;;;;;30.70;20.70;;;;;6.70;98989.00;;;;16486552;28;20238;-80
2022/12/03 06:55:44;;;;;;;25.23;17.93;;;;;6.50;98984.00;;;;16495236;28;20282;-81
2022/12/03 07:03:48;;;;;;;26.73;18.57;;;;;6.50;98982.00;;;;16509899;28;20241;-81
2022/12/03 07:11:51;;;;;;;30.10;19.63;;;;;7.50;98961.00;;;;16503802;28;20818;-81
2022/12/03 07:19:55;;;;;;;30.40;21.50;;;;;7.90;98958.00;;;;16517621;28;20304;-80
2022/12/03 07:27:57;;;;;;;35.47;23.03;;;;;7.70;98956.00;;;;16517938;28;20801;-81
2022/12/03 07:36:01;;;;;;;32.93;22.37;;;;;8.40;98953.00;;;;16479296;28;20239;-80
2022/12/03 07:44:04;;;;;;;34.57;21.80;;;;;8.30;98954.00;;;;16516664;28;20554;-76
2022/12/03 07:52:08;;;;;;;33.03;21.63;;;;;8.60;98950.00;;;;16502282;28;20278;-77
2022/12/03 08:00:12;;;;;;;34.97;22.30;;;;;8.00;98958.00;;;;16511537;28;20231;-78
2022/12/03 08:08:16;;;;;;;35.57;22.97;;;;;8.00;98954.00;;;;16504787;28;20770;-77
2022/12/03 08:16:20;;;;;;;32.00;23.00;;;;;7.50;98968.00;;;;16482996;28;20236;-77
2022/12/03 08:24:23;;;;;;;27.70;20.67;;;;;7.60;98964.00;;;;16475981;28;20238;-77
2022/12/03 08:32:26;;;;;;;25.57;17.80;;;;;8.00;98963.00;;;;16486860;28;20193;-77
2022/12/03 08:40:35;;;;;;;26.23;17.77;;;;;7.80;98960.00;;;;16497091;28;20300;-77
2022/12/03 08:48:39;;;;;;;28.73;20.00;;;;;7.60;98968.00;;;;16475259;28;20235;-77
2022/12/03 08:56:43;;;;;;;35.57;19.90;;;;;7.70;98959.00;;;;16471063;28;20310;-77
2022/12/03 09:04:47;;;;;;;29.87;18.90;;;;;7.20;98977.00;;;;16470265;28;20230;-77
2022/12/03 09:12:50;;;;;;;33.00;23.07;;;;;6.90;98974.00;;;;16473584;28;20207;-77
2022/12/03 09:20:53;;;;;;;33.97;20.77;;;;;7.20;98989.00;;;;16467162;28;20281;-78
2022/12/03 09:28:57;;;;;;;31.60;21.67;;;;;7.40;98985.00;;;;16452822;28;20680;-77
2022/12/03 09:37:00;;;;;;;28.10;17.53;;;;;8.00;98965.00;;;;16452966;28;20240;-78
2022/12/03 09:45:09;;;;;;;24.53;18.53;;;;;7.10;98958.00;;;;16503961;23;20278;-46
2022/12/03 09:53:14;;;;;;;29.83;18.20;;;;;7.50;98945.00;;;;16724994;28;20287;-46
2022/12/03 10:01:18;;;;;;;27.13;16.33;;;;;7.70;98957.00;;;;16714055;28;20625;-46
2022/12/03 10:09:25;;;;;;;25.23;17.23;;;;;7.20;98973.00;;;;16645310;28;20233;-47
2022/12/03 10:17:29;;;;;;;24.20;17.70;;;;;7.10;98973.00;;;;16636661;28;20223;-46
2022/12/03 10:25:32;;;;;;;27.27;17.27;;;;;7.40;98952.00;;;;16628186;28;20294;-46
2022/12/03 10:33:37;;;;;;;26.67;16.93;;;;;7.20;98948.00;;;;16620380;28;20595;-47
2022/12/03 10:41:41;;;;;;;22.90;15.13;;;;;7.70;98956.00;;;;16626489;28;20220;-46
2022/12/03 10:49:45;;;;;;;28.13;18.37;;;;;7.00;98933.00;;;;16624680;28;20248;-47
2022/12/03 10:57:47;;;;;;;24.40;16.90;;;;;7.20;98929.00;;;;16622544;28;20300;-45
2022/12/03 11:05:52;;;;;;;25.50;15.70;;;;;8.30;98900.00;;;;16620017;28;20221;-47
2022/12/03 11:13:56;;;;;;;24.60;15.07;;;;;8.30;98900.00;;;;16629595;28;20257;-47
2022/12/03 11:22:40;;;;;;;24.60;15.07;;;;;8.50;98882.00;;;;16624349;28;20225;-47
2022/12/03 11:31:01;;;;;;;22.03;15.40;;;;;8.50;98887.00;;;;16492763;28;20780;-47
2022/12/03 11:39:04;;;;;;;29.70;18.67;;;;;7.50;98891.00;;;;16506670;28;20341;-46
2022/12/03 11:47:14;;;;;;;30.00;22.27;;;;;8.10;98869.00;;;;16512062;28;20336;-47
2022/12/03 11:55:23;;;;;;;70.37;51.77;;;;;8.10;98856.00;;;;16520166;28;20603;-47
2022/12/03 12:03:27;;;;;;;22.13;17.00;;;;;7.60;98865.00;;;;16584855;28;20226;-47
2022/12/03 12:11:33;;;;;;;27.03;17.70;;;;;7.40;98852.00;;;;16608397;28;20280;-47
2022/12/03 12:19:38;;;;;;;21.53;14.70;;;;;7.90;98840.00;;;;16628765;28;20224;-47
2022/12/03 12:27:44;;;;;;;22.13;15.83;;;;;7.80;98832.00;;;;16649387;28;20258;-48
2022/12/03 12:35:46;;;;;;;26.00;15.63;;;;;7.10;98843.00;;;;16633228;28;20225;-47
2022/12/03 12:43:50;;;;;;;24.97;16.37;;;;;7.90;98826.00;;;;16636667;28;20333;-47
2022/12/03 12:51:54;;;;;;;29.13;15.77;;;;;7.60;98816.00;;;;16643810;28;20206;-47
2022/12/03 12:59:58;;;;;;;25.67;15.97;;;;;8.50;98805.00;;;;16593601;28;20702;-50
2022/12/03 13:08:00;;;;;;;22.63;16.20;;;;;8.10;98796.00;;;;16639148;28;20310;-48
2022/12/03 13:16:06;;;;;;;56.80;36.70;;;;;8.60;98803.00;;;;16663213;28;20296;-48
2022/12/03 13:24:32;;;;;;;30.60;18.63;;;;;7.40;98815.00;;;;16650215;28;20256;-48
2022/12/03 13:32:37;;;;;;;32.73;20.63;;;;;7.30;98819.00;;;;16637123;28;20264;-47
2022/12/03 13:40:40;;;;;;;33.93;23.23;;;;;7.50;98802.00;;;;16632476;28;20916;-48
2022/12/03 13:48:47;;;;;;;31.50;19.77;;;;;7.70;98800.00;;;;16649510;28;20591;-48
2022/12/03 13:56:52;;;;;;;22.90;15.53;;;;;7.10;98814.00;;;;16629623;28;20941;-47
2022/12/03 14:04:56;;;;;;;30.47;18.27;;;;;6.90;98805.00;;;;16644179;28;20229;-49
2022/12/03 14:12:59;;;;;;;25.27;16.53;;;;;6.90;98798.00;;;;16667273;28;20267;-47
2022/12/03 14:21:03;;;;;;;27.43;18.80;;;;;7.00;98793.00;;;;16646682;28;20224;-47
2022/12/03 14:29:06;;;;;;;24.03;15.20;;;;;7.20;98793.00;;;;16624064;28;20822;-49
2022/12/03 14:37:09;;;;;;;27.63;17.47;;;;;6.70;98804.00;;;;16660919;28;20353;-47
2022/12/03 14:45:12;;;;;;;21.57;14.07;;;;;7.10;98817.00;;;;16673831;28;20816;-48
2022/12/03 14:53:16;;;;;;;23.37;15.10;;;;;7.20;98824.00;;;;16680692;28;20244;-48
2022/12/03 15:01:18;;;;;;;35.70;22.90;;;;;6.70;98823.00;;;;16670168;28;20229;-49
2022/12/03 15:09:22;;;;;;;22.23;15.43;;;;;7.00;98815.00;;;;16637133;28;20359;-48
2022/12/03 15:17:27;;;;;;;25.83;15.80;;;;;6.50;98820.00;;;;16631182;28;20244;-47
2022/12/03 15:25:33;;;;;;;21.10;13.47;;;;;7.30;98808.00;;;;16608821;28;20228;-48
2022/12/03 15:33:37;;;;;;;19.47;13.80;;;;;6.70;98822.00;;;;16619816;28;20224;-46
2022/12/03 15:41:41;;;;;;;21.90;15.13;;;;;6.20;98829.00;;;;16651800;28;20598;-47
2022/12/03 15:49:47;;;;;;;21.27;13.13;;;;;7.00;98816.00;;;;16654504;28;20223;-48
2022/12/03 15:57:51;;;;;;;24.90;14.43;;;;;7.00;98814.00;;;;16651915;28;20212;-48
2022/12/03 16:05:54;;;;;;;23.03;15.00;;;;;7.10;98812.00;;;;16633640;28;20645;-49
2022/12/03 16:13:57;;;;;;;23.57;17.20;;;;;7.20;98817.00;;;;16642236;28;20343;-47
2022/12/03 16:22:00;;;;;;;25.03;17.40;;;;;6.40;98815.00;;;;16660423;28;20351;-49
2022/12/03 16:30:04;;;;;;;23.07;15.87;;;;;6.40;98811.00;;;;16650982;28;20576;-48
2022/12/03 16:38:07;;;;;;;27.10;18.23;;;;;6.60;98809.00;;;;16690885;28;20222;-48
2022/12/03 16:46:24;;;;;;;27.57;19.20;;;;;7.30;98805.00;;;;16669532;28;20361;-48
2022/12/03 16:54:29;;;;;;;26.10;17.37;;;;;6.50;98816.00;;;;16663188;28;20223;-47
2022/12/03 17:02:32;;;;;;;29.43;20.37;;;;;7.20;98798.00;;;;16610811;28;20233;-48
2022/12/03 17:10:35;;;;;;;27.50;17.27;;;;;6.10;98810.00;;;;16616913;28;20222;-47
2022/12/03 17:18:41;;;;;;;25.30;17.70;;;;;6.00;98793.00;;;;16640129;28;20225;-48
2022/12/03 17:26:44;;;;;;;25.93;17.93;;;;;7.10;98784.00;;;;16658055;28;20238;-46
2022/12/03 17:34:48;;;;;;;25.17;16.73;;;;;7.20;98778.00;;;;16658515;28;20217;-49
2022/12/03 17:42:53;;;;;;;22.10;15.73;;;;;7.20;98775.00;;;;16647636;28;20233;-48
2022/12/03 17:51:00;;;;;;;25.53;17.57;;;;;6.60;98781.00;;;;16632734;28;20196;-48
2022/12/03 17:59:03;;;;;;;25.63;16.13;;;;;7.20;98770.00;;;;16617440;28;20211;-49
2022/12/03 18:07:07;;;;;;;25.03;15.63;;;;;7.10;98766.00;;;;16637148;28;20234;-48
2022/12/03 18:15:10;;;;;;;25.13;16.10;;;;;6.80;98765.00;;;;16661567;28;20223;-47
2022/12/03 18:23:14;;;;;;;27.30;16.57;;;;;6.00;98765.00;;;;16654201;28;20565;-48
2022/12/03 18:31:19;;;;;;;25.80;17.30;;;;;6.30;98768.00;;;;16669431;28;20196;-46
2022/12/03 18:39:25;;;;;;;24.17;15.27;;;;;6.40;98754.00;;;;16635274;28;20224;-47
2022/12/03 18:47:29;;;;;;;25.97;16.43;;;;;6.30;98757.00;;;;16666984;23;20236;-72
2022/12/03 18:55:35;;;;;;;27.37;17.90;;;;;6.30;98764.00;;;;16625623;28;20349;-72
2022/12/03 19:03:39;;;;;;;26.67;15.67;;;;;7.40;98744.00;;;;16619259;28;20495;-73
2022/12/03 19:11:43;;;;;;;25.87;15.53;;;;;7.20;98737.00;;;;16685333;28;20721;-73
2022/12/03 19:19:48;;;;;;;25.17;15.50;;;;;7.30;98746.00;;;;16686073;28;20234;-73
2022/12/03 19:27:53;;;;;;;22.90;14.37;;;;;7.50;98733.00;;;;16686377;28;20234;-72
2022/12/03 19:35:59;;;;;;;25.93;16.00;;;;;6.90;98742.00;;;;16700008;28;20212;-72
2022/12/03 19:44:03;;;;;;;25.23;17.00;;;;;6.40;98734.00;;;;16698351;28;20217;-72
2022/12/03 19:52:06;;;;;;;27.07;17.37;;;;;6.40;98745.00;;;;16695494;28;20230;-72
2022/12/03 20:00:13;;;;;;;23.00;13.87;;;;;6.90;98732.00;;;;16702503;28;20217;-72
2022/12/03 20:08:17;;;;;;;23.20;16.03;;;;;7.10;98746.00;;;;16682107;28;20239;-73
2022/12/03 20:16:21;;;;;;;21.70;14.17;;;;;7.50;98730.00;;;;16688536;28;21235;-73
2022/12/03 20:24:23;;;;;;;24.10;14.97;;;;;7.70;98723.00;;;;16669745;28;20225;-73
2022/12/03 20:32:27;;;;;;;20.50;14.13;;;;;7.50;98725.00;;;;16671825;28;20217;-73
2022/12/03 20:40:30;;;;;;;25.63;16.23;;;;;7.50;98724.00;;;;16698537;28;20219;-73
2022/12/03 20:48:34;;;;;;;24.23;17.00;;;;;7.40;98711.00;;;;16685845;28;20242;-73
2022/12/03 20:56:40;;;;;;;23.27;16.53;;;;;7.70;98706.00;;;;16709011;28;20746;-73
2022/12/03 21:04:44;;;;;;;21.40;14.83;;;;;7.40;98701.00;;;;16707730;28;20226;-74
2022/12/03 21:12:47;;;;;;;30.90;19.87;;;;;7.40;98694.00;;;;16693885;28;20220;-74
2022/12/03 21:20:50;;;;;;;96.67;77.57;;;;;7.80;98695.00;;;;16708739;28;20228;-74
2022/12/03 21:28:54;;;;;;;44.17;32.63;;;;;8.00;98684.00;;;;16697292;28;20236;-73
2022/12/03 21:36:58;;;;;;;28.83;19.60;;;;;7.80;98686.00;;;;16678089;28;20216;-74
2022/12/03 21:45:00;;;;;;;32.77;22.00;;;;;7.60;98686.00;;;;16705135;28;20228;-73
2022/12/03 21:53:04;;;;;;;71.30;47.97;;;;;7.60;98680.00;;;;16694627;28;20224;-73
2022/12/03 22:01:14;;;;;;;34.40;22.00;;;;;7.90;98672.00;;;;16674990;28;20223;-74
2022/12/03 22:09:18;;;;;;;34.93;22.27;;;;;7.80;98674.00;;;;16670760;28;20580;-74
2022/12/03 22:17:21;;;;;;;33.93;21.33;;;;;7.50;98673.00;;;;16668199;28;20727;-73
2022/12/03 22:25:27;;;;;;;36.27;22.80;;;;;7.90;98660.00;;;;16689016;28;20584;-72
2022/12/03 22:33:30;;;;;;;34.90;22.07;;;;;7.40;98664.00;;;;16688822;28;20245;-74
2022/12/03 22:41:34;;;;;;;32.60;21.23;;;;;7.60;98667.00;;;;16676602;28;20590;-74
2022/12/03 22:49:36;;;;;;;33.47;21.13;;;;;7.70;98661.00;;;;16693210;28;20235;-74
2022/12/03 22:57:40;;;;;;;31.20;22.13;;;;;7.70;98660.00;;;;16688422;28;20710;-73
2022/12/03 23:05:42;;;;;;;131.40;81.07;;;;;7.70;98641.00;;;;16685133;28;20231;-72
2022/12/03 23:13:47;;;;;;;30.77;21.30;;;;;7.90;98637.00;;;;16692970;28;20455;-74
2022/12/03 23:21:49;;;;;;;32.50;21.90;;;;;7.70;98623.00;;;;16698978;28;20217;-73
2022/12/03 23:29:53;;;;;;;32.07;21.67;;;;;7.40;98638.00;;;;16691579;28;20717;-72
2022/12/03 23:37:56;;;;;;;32.07;20.40;;;;;7.00;98610.00;;;;16687041;28;20240;-72
2022/12/03 23:46:05;;;;;;;33.20;20.30;;;;;7.50;98622.00;;;;16691104;28;20752;-70
2022/12/03 23:54:07;;;;;;;31.80;20.30;;;;;7.60;98625.00;;;;16713582;28;20206;-70
